createdAt,value
2023-02-06T00:07:07.543Z,7.36
2023-02-06T00:22:10.475Z,7.44
2023-02-06T00:37:12.287Z,7.41
2023-02-06T00:52:13.895Z,7.41
2023-02-06T01:07:15.548Z,7.41
2023-02-06T01:22:17.185Z,7.37
2023-02-06T01:37:18.804Z,7.37
2023-02-06T02:24:45.034Z,7.37
2023-02-06T02:40:00.753Z,7.44
2023-02-06T02:55:02.284Z,7.34
2023-02-06T03:10:10.024Z,7.41
2023-02-06T03:25:13.730Z,7.40
2023-02-06T03:40:15.956Z,7.33
2023-02-06T03:55:22.546Z,7.36
2023-02-06T04:10:26.294Z,7.39
2023-02-06T04:25:28.071Z,7.35
2023-02-06T04:40:29.686Z,7.34
2023-02-06T04:55:31.249Z,7.29
2023-02-06T05:10:32.773Z,7.25
2023-02-06T05:25:35.261Z,7.34
2023-02-06T05:57:10.952Z,7.26
2023-02-06T06:12:12.604Z,7.24
2023-02-06T06:27:14.102Z,7.26
2023-02-06T06:42:15.693Z,7.30
2023-02-06T06:57:17.421Z,7.44
2023-02-06T07:12:18.992Z,7.02
2023-02-06T07:27:20.624Z,7.31
2023-02-06T07:42:22.146Z,7.41
2023-02-06T07:57:23.892Z,7.41
2023-02-06T08:28:50.484Z,7.85
2023-02-06T11:28:12.484Z,7.48
2023-02-06T11:43:22.330Z,7.61
2023-02-06T11:58:26.245Z,7.44
2023-02-06T12:13:35.340Z,7.47
2023-02-06T12:28:46.099Z,7.40
2023-02-06T12:43:50.529Z,7.35
2023-02-06T12:58:55.143Z,7.24
2023-02-06T13:14:01.292Z,7.21
2023-02-06T13:29:02.834Z,7.28
2023-02-06T13:44:06.875Z,7.15
2023-02-06T13:59:43.943Z,7.21
2023-02-06T14:15:03.469Z,7.12
2023-02-06T14:30:17.922Z,7.23
2023-02-06T14:45:41.666Z,7.17
2023-02-06T15:00:56.972Z,7.21
2023-02-06T17:43:53.901Z,6.98
2023-02-06T18:15:31.544Z,6.94
2023-02-06T18:30:34.344Z,6.94
2023-02-06T18:45:37.470Z,6.99
2023-02-06T19:00:42.442Z,7.04
2023-02-06T19:15:45.327Z,7.04
2023-02-06T19:30:46.993Z,7.05
2023-02-06T19:45:48.830Z,7.04
2023-02-06T20:00:50.411Z,7.00
2023-02-06T20:15:52.042Z,7.03
2023-02-06T20:47:24.009Z,7.12
